Time;durP1;ratioP1;P1;durP2;ratioP2;P2;SDS_P1;SDS_P2;PMS_P1;PMS_P2;Temp;Humidity;BMP_temperature;BMP_pressure;BME280_temperature;BME280_humidity;BME280_pressure;Samples;Min_cycle;Max_cycle;Signal;HPM_P1;HPM_P2
2023/05/13 00:01:17;;;;;;;13.23;11.93;;;14.10;99.90;;;;;;6111360;23;20144;-75
2023/05/13 00:03:43;;;;;;;11.63;10.43;;;14.10;99.90;;;;;;6108756;23;20210;-76
2023/05/13 00:06:09;;;;;;;11.77;9.37;;;14.00;99.90;;;;;;6090898;23;20157;-77
2023/05/13 00:08:35;;;;;;;10.33;9.33;;;14.00;99.90;;;;;;6065580;23;20400;-77
2023/05/13 00:11:01;;;;;;;10.27;9.10;;;14.00;99.90;;;;;;6091150;23;20219;-78
2023/05/13 00:13:27;;;;;;;9.87;8.60;;;13.90;99.90;;;;;;6090263;23;20385;-75
2023/05/13 00:15:52;;;;;;;12.70;11.23;;;13.80;99.90;;;;;;6085589;23;20168;-75
2023/05/13 00:18:18;;;;;;;13.93;12.47;;;13.80;99.90;;;;;;6115236;23;20200;-76
2023/05/13 00:20:44;;;;;;;12.83;11.50;;;13.80;99.90;;;;;;6110888;23;20169;-75
2023/05/13 00:23:10;;;;;;;17.53;13.70;;;13.70;99.90;;;;;;6108452;23;20236;-75
2023/05/13 00:25:36;;;;;;;14.07;12.73;;;13.70;99.90;;;;;;6113093;23;20161;-76
2023/05/13 00:28:02;;;;;;;11.73;10.17;;;13.60;99.90;;;;;;6061894;23;20374;-75
2023/05/13 00:30:28;;;;;;;10.50;9.50;;;13.60;99.90;;;;;;6073033;23;20504;-76
2023/05/13 00:32:54;;;;;;;10.57;9.57;;;13.50;99.90;;;;;;6086946;23;20365;-76
2023/05/13 00:35:19;;;;;;;14.57;13.10;;;13.40;99.90;;;;;;6113227;23;20454;-75
2023/05/13 00:37:45;;;;;;;18.13;13.60;;;13.40;99.90;;;;;;6064807;23;20219;-75
2023/05/13 00:40:22;;;;;;;16.33;13.20;;;13.30;99.90;;;;;;6117720;23;20396;-77
2023/05/13 00:42:49;;;;;;;13.93;11.60;;;13.20;99.90;;;;;;6112111;23;20368;-74
2023/05/13 00:45:15;;;;;;;13.07;11.77;;;13.20;99.90;;;;;;6114386;23;20403;-75
2023/05/13 00:47:41;;;;;;;11.70;10.60;;;13.10;99.90;;;;;;6110793;23;20468;-74
2023/05/13 00:50:09;;;;;;;13.70;10.97;;;13.10;99.90;;;;;;6110547;23;20636;-75
2023/05/13 00:52:39;;;;;;;13.00;11.60;;;13.10;99.90;;;;;;6110349;23;20373;-74
2023/05/13 00:55:07;;;;;;;15.13;13.63;;;12.90;99.90;;;;;;6111637;23;20418;-75
2023/05/13 00:57:33;;;;;;;13.70;12.40;;;12.90;99.90;;;;;;6088699;23;20381;-76
2023/05/13 01:00:00;;;;;;;13.23;11.13;;;12.90;99.90;;;;;;6111325;23;20397;-76
2023/05/13 01:02:38;;;;;;;13.97;12.57;;;12.90;99.90;;;;;;6064237;23;20404;-75
2023/05/13 01:05:06;;;;;;;13.47;11.67;;;12.80;99.90;;;;;;6112905;23;20451;-73
2023/05/13 01:07:38;;;;;;;12.67;10.80;;;12.80;99.90;;;;;;6115317;23;20349;-75
2023/05/13 01:10:07;;;;;;;14.87;13.33;;;12.70;99.90;;;;;;6114251;23;20388;-76
2023/05/13 01:12:37;;;;;;;15.23;13.43;;;12.70;99.90;;;;;;6115106;23;20381;-77
2023/05/13 01:15:09;;;;;;;14.10;12.70;;;12.70;99.90;;;;;;6062683;23;20365;-75
2023/05/13 01:18:05;;;;;;;16.80;15.20;;;12.70;99.90;;;;;;6113571;23;20393;-77
2023/05/13 01:20:33;;;;;;;15.23;13.60;;;12.70;99.90;;;;;;6109151;23;20921;-75
2023/05/13 01:22:59;;;;;;;16.33;14.70;;;12.70;99.90;;;;;;6086301;23;20373;-73
2023/05/13 01:25:25;;;;;;;13.80;12.30;;;12.70;99.90;;;;;;6085944;23;20431;-76
2023/05/13 01:27:52;;;;;;;13.40;11.97;;;12.60;99.90;;;;;;6110424;23;20148;-76
2023/05/13 01:30:19;;;;;;;15.77;12.10;;;12.50;99.90;;;;;;6085316;23;20472;-78
2023/05/13 01:32:45;;;;;;;13.27;11.97;;;12.50;99.90;;;;;;6108293;23;20384;-76
2023/05/13 01:35:11;;;;;;;13.90;12.30;;;12.50;99.90;;;;;;6086229;23;20691;-76
2023/05/13 01:37:45;;;;;;;16.73;14.90;;;12.50;99.90;;;;;;6065174;23;20440;-78
2023/05/13 01:40:12;;;;;;;14.70;13.17;;;12.50;99.90;;;;;;6093803;23;20444;-75
2023/05/13 01:42:39;;;;;;;13.50;11.90;;;12.50;99.90;;;;;;6093550;23;20443;-75
2023/05/13 01:45:06;;;;;;;13.43;11.57;;;12.50;99.90;;;;;;6089320;23;20682;-75
2023/05/13 01:47:32;;;;;;;15.30;13.13;;;12.50;99.90;;;;;;6084087;23;20392;-76
2023/05/13 01:49:58;;;;;;;13.03;11.73;;;12.50;99.90;;;;;;6060521;23;20443;-74
2023/05/13 01:52:23;;;;;;;12.87;11.57;;;12.50;99.90;;;;;;6083167;23;20445;-75
2023/05/13 01:54:49;;;;;;;13.03;11.73;;;12.40;99.90;;;;;;6108761;23;20148;-76
2023/05/13 01:57:14;;;;;;;15.13;10.87;;;12.40;99.90;;;;;;6061555;23;20148;-74
2023/05/13 01:59:40;;;;;;;11.03;10.03;;;12.30;99.90;;;;;;6088103;23;20176;-75
2023/05/13 02:02:06;;;;;;;18.33;12.57;;;12.30;99.90;;;;;;6090008;23;20199;-74
2023/05/13 02:04:32;;;;;;;13.13;11.83;;;12.20;99.90;;;;;;6109669;23;20215;-74
2023/05/13 02:06:58;;;;;;;12.97;11.63;;;12.20;99.90;;;;;;6109779;23;20357;-75
2023/05/13 02:09:26;;;;;;;22.10;16.90;;;12.20;99.90;;;;;;6085348;23;20173;-76
2023/05/13 02:11:51;;;;;;;21.83;19.27;;;12.20;99.90;;;;;;6109688;23;20425;-76
2023/05/13 02:14:17;;;;;;;22.10;19.70;;;12.30;99.90;;;;;;6084816;23;20338;-76
2023/05/13 02:16:43;;;;;;;29.20;18.93;;;12.30;99.90;;;;;;6114826;23;20148;-78
2023/05/13 02:19:09;;;;;;;22.40;20.03;;;12.30;99.90;;;;;;6115298;23;20181;-74
2023/05/13 02:21:34;;;;;;;20.90;17.70;;;12.30;99.90;;;;;;6108138;23;20377;-76
2023/05/13 02:24:00;;;;;;;17.40;15.70;;;12.20;99.90;;;;;;6110048;23;20301;-76
2023/05/13 02:26:27;;;;;;;24.67;19.53;;;12.20;99.90;;;;;;6090913;23;20156;-74
2023/05/13 02:28:53;;;;;;;23.03;17.30;;;12.30;99.90;;;;;;6084192;23;20635;-75
2023/05/13 02:31:18;;;;;;;19.10;17.17;;;12.30;99.90;;;;;;6083220;23;20168;-73
2023/05/13 02:33:45;;;;;;;18.70;16.80;;;12.30;99.90;;;;;;6108147;23;20483;-76
2023/05/13 02:36:10;;;;;;;16.63;14.90;;;12.30;99.90;;;;;;6110996;23;20436;-76
2023/05/13 02:38:36;;;;;;;19.27;17.20;;;12.30;99.90;;;;;;6110407;23;20144;-74
2023/05/13 02:41:03;;;;;;;26.07;21.40;;;12.40;99.90;;;;;;6107663;23;20868;-75
2023/05/13 02:43:30;;;;;;;23.20;20.70;;;12.40;99.90;;;;;;6083536;23;20369;-75
2023/05/13 02:46:01;;;;;;;18.70;16.70;;;12.40;99.90;;;;;;6107860;23;20148;-74
2023/05/13 02:48:27;;;;;;;16.40;14.73;;;12.40;99.90;;;;;;6084499;23;20435;-74
2023/05/13 02:50:53;;;;;;;14.97;13.47;;;12.30;99.90;;;;;;6083478;23;20388;-76
2023/05/13 02:53:19;;;;;;;16.00;13.90;;;12.30;99.90;;;;;;6084614;23;20147;-74
2023/05/13 02:55:51;;;;;;;17.23;15.60;;;12.20;99.90;;;;;;6083327;23;20373;-75
2023/05/13 02:58:17;;;;;;;15.83;13.80;;;12.10;99.90;;;;;;6105930;23;20456;-74
2023/05/13 03:00:43;;;;;;;15.33;11.83;;;12.10;99.90;;;;;;6082376;23;20168;-75
2023/05/13 03:03:09;;;;;;;14.23;12.57;;;12.10;99.90;;;;;;6082068;23;20503;-74
2023/05/13 03:05:34;;;;;;;13.40;11.60;;;12.10;99.90;;;;;;6060495;23;20181;-78
2023/05/13 03:08:00;;;;;;;12.80;11.60;;;12.00;99.90;;;;;;6103581;23;20330;-73
2023/05/13 03:10:25;;;;;;;14.40;12.80;;;12.00;99.90;;;;;;6098386;23;20226;-74
2023/05/13 03:12:51;;;;;;;17.20;14.90;;;12.00;99.90;;;;;;6104719;23;20137;-74
2023/05/13 03:15:18;;;;;;;20.13;18.03;;;12.10;99.90;;;;;;6110520;23;20376;-74
2023/05/13 03:17:43;;;;;;;18.63;16.77;;;12.10;99.90;;;;;;6085412;23;20423;-74
2023/05/13 03:20:10;;;;;;;18.73;16.40;;;12.00;99.90;;;;;;6086902;23;20180;-75
2023/05/13 03:22:37;;;;;;;20.10;17.33;;;12.00;99.90;;;;;;6083658;23;20372;-75
2023/05/13 03:25:05;;;;;;;24.43;19.40;;;12.00;99.90;;;;;;6086321;23;20495;-75
2023/05/13 03:27:38;;;;;;;19.20;17.23;;;11.90;99.90;;;;;;6108149;23;20352;-74
2023/05/13 03:30:05;;;;;;;18.13;14.80;;;11.80;99.90;;;;;;6083435;23;20389;-76
2023/05/13 03:32:36;;;;;;;18.23;14.57;;;11.70;99.90;;;;;;6038583;23;20636;-74
2023/05/13 03:35:02;;;;;;;15.63;12.00;;;11.70;99.90;;;;;;6106324;23;20379;-77
2023/05/13 03:37:29;;;;;;;12.87;11.57;;;11.60;99.90;;;;;;6108783;23;20137;-73
2023/05/13 03:39:55;;;;;;;14.30;12.80;;;11.60;99.90;;;;;;6104885;23;20455;-74
2023/05/13 03:42:22;;;;;;;15.80;13.80;;;11.60;99.90;;;;;;6104936;23;20215;-74
2023/05/13 03:44:48;;;;;;;12.37;11.17;;;11.60;99.90;;;;;;6106659;23;20392;-75
2023/05/13 03:47:13;;;;;;;12.00;10.77;;;11.60;99.90;;;;;;6108778;23;20383;-75
2023/05/13 03:49:39;;;;;;;13.83;11.77;;;11.70;99.90;;;;;;6082310;23;20431;-75
2023/05/13 03:52:08;;;;;;;12.90;11.50;;;11.70;99.90;;;;;;6082824;23;20139;-74
2023/05/13 03:54:34;;;;;;;12.00;10.90;;;11.70;99.90;;;;;;6083207;23;20156;-75
2023/05/13 03:57:00;;;;;;;15.43;12.07;;;11.70;99.90;;;;;;6077563;23;20571;-74
2023/05/13 03:59:26;;;;;;;16.43;14.70;;;11.70;99.90;;;;;;6071237;23;20412;-73
2023/05/13 04:01:53;;;;;;;20.13;16.43;;;11.80;99.90;;;;;;6102958;23;20171;-77
2023/05/13 04:04:19;;;;;;;20.83;18.63;;;11.70;99.90;;;;;;6084814;23;20192;-73
2023/05/13 04:06:45;;;;;;;26.47;22.83;;;11.80;99.90;;;;;;6105674;23;20519;-73
2023/05/13 04:09:10;;;;;;;27.33;24.43;;;11.70;99.90;;;;;;6106087;23;20188;-74
2023/05/13 04:11:36;;;;;;;25.40;22.80;;;11.80;99.90;;;;;;6114804;23;20372;-75
2023/05/13 04:14:01;;;;;;;25.57;22.80;;;11.80;99.90;;;;;;6088960;23;20152;-74
2023/05/13 04:16:28;;;;;;;28.50;25.13;;;11.70;99.90;;;;;;6107351;23;20152;-73
2023/05/13 04:18:53;;;;;;;24.37;21.80;;;11.70;99.90;;;;;;6110023;23;20145;-74
2023/05/13 04:21:19;;;;;;;22.73;19.90;;;11.70;99.90;;;;;;6111110;23;20377;-73
2023/05/13 04:23:47;;;;;;;23.90;21.50;;;11.70;99.90;;;;;;6112084;23;20368;-73
2023/05/13 04:26:13;;;;;;;21.97;19.73;;;11.70;99.90;;;;;;6104617;23;20402;-73
2023/05/13 04:28:38;;;;;;;21.77;19.47;;;11.70;99.90;;;;;;6084109;23;20149;-73
2023/05/13 04:31:04;;;;;;;22.60;18.07;;;11.80;99.90;;;;;;6106904;23;20157;-74
2023/05/13 04:33:33;;;;;;;23.73;21.23;;;11.90;99.90;;;;;;6082262;23;20219;-73
2023/05/13 04:35:59;;;;;;;21.43;19.33;;;11.90;99.90;;;;;;6059119;23;20687;-74
2023/05/13 04:38:25;;;;;;;20.90;18.67;;;12.00;99.90;;;;;;6083499;23;20573;-73
2023/05/13 04:40:51;;;;;;;22.77;19.90;;;12.00;99.90;;;;;;6106040;23;20175;-73
2023/05/13 04:43:24;;;;;;;18.23;16.30;;;12.10;99.90;;;;;;6080457;23;20152;-74
2023/05/13 04:45:54;;;;;;;17.80;15.60;;;12.20;99.90;;;;;;6106078;23;20440;-74
2023/05/13 04:48:20;;;;;;;19.17;17.17;;;12.30;99.90;;;;;;6084675;23;20451;-73
2023/05/13 04:50:46;;;;;;;19.10;17.30;;;12.40;99.90;;;;;;6107839;23;20817;-74
2023/05/13 04:53:13;;;;;;;23.00;20.83;;;12.40;99.90;;;;;;6081706;23;20422;-75
2023/05/13 04:55:39;;;;;;;22.67;20.40;;;12.50;99.90;;;;;;6108183;23;20393;-74
2023/05/13 04:58:04;;;;;;;19.93;17.83;;;12.50;99.90;;;;;;6104090;23;20141;-74
2023/05/13 05:00:31;;;;;;;24.37;21.77;;;12.60;99.90;;;;;;6084970;23;20188;-74
2023/05/13 05:02:57;;;;;;;23.50;21.13;;;12.70;99.90;;;;;;6061725;23;20373;-73
2023/05/13 05:05:23;;;;;;;25.63;21.03;;;12.90;99.90;;;;;;6082819;23;20435;-73
2023/05/13 05:07:49;;;;;;;21.93;19.60;;;13.30;99.90;;;;;;6075670;23;20381;-75
2023/05/13 05:10:15;;;;;;;21.07;18.83;;;13.70;99.90;;;;;;6075260;23;20195;-73
2023/05/13 05:12:45;;;;;;;21.63;19.43;;;14.10;99.90;;;;;;6074556;23;20407;-75
2023/05/13 05:15:14;;;;;;;18.77;16.40;;;14.40;99.90;;;;;;6074860;23;20377;-75
2023/05/13 05:17:42;;;;;;;18.90;17.00;;;14.70;99.90;;;;;;6073894;23;20148;-76
2023/05/13 05:20:08;;;;;;;15.67;14.00;;;15.00;99.90;;;;;;6099684;23;20404;-75
2023/05/13 05:22:35;;;;;;;14.27;12.93;;;15.20;99.90;;;;;;6075341;23;20391;-75
2023/05/13 05:25:00;;;;;;;14.53;13.13;;;15.60;99.90;;;;;;6100290;23;20411;-74
2023/05/13 05:27:26;;;;;;;14.33;12.90;;;15.90;99.90;;;;;;6099773;23;20375;-74
2023/05/13 05:29:51;;;;;;;11.00;9.90;;;16.20;99.90;;;;;;6098555;23;20190;-74
2023/05/13 05:32:18;;;;;;;15.20;13.70;;;16.60;99.90;;;;;;6050829;23;20156;-74
2023/05/13 05:34:43;;;;;;;12.97;11.77;;;16.80;99.90;;;;;;6099813;23;20202;-75
2023/05/13 05:37:09;;;;;;;12.70;11.47;;;17.10;99.90;;;;;;6100023;23;20413;-74
2023/05/13 05:39:37;;;;;;;14.37;12.63;;;17.30;99.90;;;;;;6074277;23;20474;-74
2023/05/13 05:42:03;;;;;;;13.90;12.30;;;17.50;99.90;;;;;;6099287;23;20592;-75
2023/05/13 05:44:28;;;;;;;13.57;12.23;;;17.60;99.90;;;;;;6073748;23;20420;-74
2023/05/13 05:46:55;;;;;;;13.07;11.80;;;17.80;99.90;;;;;;6075277;23;20486;-76
2023/05/13 05:49:22;;;;;;;12.57;11.37;;;18.10;99.90;;;;;;6074768;23;20404;-75
2023/05/13 05:51:48;;;;;;;16.03;14.33;;;18.30;99.90;;;;;;6074837;23;20377;-74
2023/05/13 05:54:13;;;;;;;14.17;12.60;;;18.40;99.90;;;;;;6099086;23;20388;-75
2023/05/13 05:56:39;;;;;;;16.00;14.50;;;18.60;99.70;;;;;;6100905;23;20137;-76
2023/05/13 05:59:05;;;;;;;17.77;12.73;;;18.80;98.00;;;;;;6104875;23;20196;-75
2023/05/13 06:01:33;;;;;;;13.07;11.97;;;19.00;96.70;;;;;;6106047;23;20157;-76
2023/05/13 06:03:58;;;;;;;12.17;11.13;;;19.10;93.90;;;;;;6084061;23;20190;-74
2023/05/13 06:06:24;;;;;;;11.50;10.50;;;19.20;93.30;;;;;;6085171;23;20368;-77
2023/05/13 06:08:50;;;;;;;11.83;10.63;;;19.20;92.40;;;;;;6083637;23;20193;-75
2023/05/13 06:11:15;;;;;;;11.30;10.20;;;19.30;91.60;;;;;;6109661;23;20130;-76
2023/05/13 06:13:42;;;;;;;10.83;8.80;;;19.30;92.40;;;;;;6111583;23;20147;-75
2023/05/13 06:16:08;;;;;;;10.70;9.60;;;19.40;92.10;;;;;;6084345;23;20188;-75
2023/05/13 06:18:36;;;;;;;12.77;11.33;;;19.40;90.60;;;;;;6083691;23;20384;-74
2023/05/13 06:21:02;;;;;;;9.83;8.93;;;19.30;87.10;;;;;;6083674;23;20503;-74
2023/05/13 06:23:28;;;;;;;10.17;9.17;;;19.20;89.80;;;;;;6063367;23;20155;-75
2023/05/13 06:25:54;;;;;;;9.60;8.60;;;19.20;84.90;;;;;;6110226;23;20696;-75
2023/05/13 06:28:19;;;;;;;10.97;8.77;;;19.30;81.80;;;;;;6118209;23;20164;-78
2023/05/13 06:30:47;;;;;;;7.87;7.13;;;19.40;77.00;;;;;;6073324;23;20422;-76
2023/05/13 06:33:13;;;;;;;7.53;6.23;;;19.40;76.60;;;;;;6089842;23;20390;-75
2023/05/13 06:35:39;;;;;;;8.27;7.30;;;19.50;73.90;;;;;;6111431;23;20155;-75
2023/05/13 06:38:05;;;;;;;9.40;8.37;;;19.60;71.90;;;;;;6085378;23;20164;-76
2023/05/13 06:40:32;;;;;;;8.90;8.03;;;19.60;69.90;;;;;;6085330;23;20475;-76
2023/05/13 06:42:58;;;;;;;8.83;6.10;;;19.70;69.00;;;;;;6087946;23;20376;-76
2023/05/13 06:45:35;;;;;;;7.30;6.60;;;19.90;68.40;;;;;;6091618;23;20424;-78
2023/05/13 06:48:01;;;;;;;7.80;7.00;;;20.00;66.30;;;;;;6066278;23;20781;-76
2023/05/13 06:50:26;;;;;;;6.60;5.90;;;20.20;64.30;;;;;;6085729;23;20227;-75
2023/05/13 06:52:52;;;;;;;8.40;7.30;;;20.30;63.60;;;;;;6085986;23;20148;-78
2023/05/13 06:55:18;;;;;;;7.63;6.60;;;20.40;61.20;;;;;;6061266;23;20182;-76
2023/05/13 06:57:45;;;;;;;7.00;5.80;;;20.20;60.00;;;;;;6061107;23;20184;-77
2023/05/13 07:00:12;;;;;;;7.63;6.67;;;20.20;59.60;;;;;;6063075;23;20486;-79
2023/05/13 07:02:38;;;;;;;6.87;6.00;;;20.30;58.60;;;;;;6086138;23;20422;-77
2023/05/13 07:05:04;;;;;;;6.63;5.33;;;20.20;58.30;;;;;;6086162;23;20436;-75
2023/05/13 07:07:30;;;;;;;6.90;6.30;;;20.10;59.00;;;;;;6086800;23;20137;-77
2023/05/13 07:09:55;;;;;;;12.70;7.73;;;20.00;60.60;;;;;;6084813;23;20396;-75
2023/05/13 07:12:21;;;;;;;7.20;6.60;;;20.00;62.40;;;;;;6112257;23;20140;-75
2023/05/13 07:14:47;;;;;;;8.43;7.63;;;19.80;63.60;;;;;;6087518;23;20236;-75
2023/05/13 07:17:13;;;;;;;8.97;7.60;;;19.50;65.50;;;;;;6088243;23;20161;-79
2023/05/13 07:19:39;;;;;;;9.83;8.13;;;19.30;67.50;;;;;;6088724;23;20454;-75
2023/05/13 07:22:04;;;;;;;9.90;9.00;;;19.00;70.00;;;;;;6094236;23;20203;-79
2023/05/13 07:24:30;;;;;;;8.13;7.20;;;18.80;70.60;;;;;;6096490;23;20172;-76
2023/05/13 07:26:55;;;;;;;6.60;6.00;;;18.50;68.10;;;;;;6118973;23;20147;-79
2023/05/13 07:29:21;;;;;;;7.30;6.60;;;18.40;69.90;;;;;;6070772;23;20178;-74
2023/05/13 07:31:47;;;;;;;6.73;6.10;;;18.30;70.60;;;;;;6093902;23;20145;-77
2023/05/13 07:34:13;;;;;;;7.20;6.40;;;18.20;71.00;;;;;;6068397;23;20149;-77
2023/05/13 07:36:38;;;;;;;7.20;5.67;;;18.30;69.00;;;;;;6065374;23;20403;-79
2023/05/13 07:39:04;;;;;;;6.97;6.30;;;18.30;68.30;;;;;;6112839;23;20162;-76
2023/05/13 07:41:30;;;;;;;6.03;5.43;;;18.30;67.70;;;;;;6088771;23;20198;-78
2023/05/13 07:43:57;;;;;;;6.43;5.80;;;18.40;68.60;;;;;;6118755;23;20138;-79
2023/05/13 07:46:23;;;;;;;6.73;6.13;;;18.40;69.40;;;;;;6090316;23;20162;-77
2023/05/13 07:48:49;;;;;;;6.10;5.50;;;18.40;68.60;;;;;;6112216;23;20713;-76
2023/05/13 07:51:17;;;;;;;7.83;6.40;;;18.60;69.50;;;;;;6088030;23;20196;-78
2023/05/13 07:53:44;;;;;;;7.97;6.07;;;18.60;68.50;;;;;;6087876;23;20154;-77
2023/05/13 07:56:10;;;;;;;7.33;6.57;;;18.60;68.40;;;;;;6092595;23;20459;-79
2023/05/13 07:58:36;;;;;;;8.33;6.80;;;18.60;68.70;;;;;;6044712;23;20461;-76
2023/05/13 08:01:03;;;;;;;6.00;5.47;;;18.60;68.60;;;;;;6113599;23;20402;-78
2023/05/13 08:03:29;;;;;;;7.07;5.90;;;18.70;67.80;;;;;;6091340;23;20194;-78
2023/05/13 08:05:55;;;;;;;6.77;5.63;;;18.70;67.50;;;;;;6090229;23;20427;-77
2023/05/13 08:08:21;;;;;;;6.67;6.00;;;18.80;66.40;;;;;;6091761;23;20827;-79
2023/05/13 08:10:47;;;;;;;6.30;5.73;;;19.00;65.20;;;;;;6093446;23;20177;-78
2023/05/13 08:13:12;;;;;;;6.57;5.50;;;19.10;63.90;;;;;;6087873;23;20148;-79
2023/05/13 08:15:38;;;;;;;5.47;4.97;;;19.30;63.20;;;;;;6113661;23;20144;-76
2023/05/13 08:18:04;;;;;;;4.80;4.37;;;19.60;62.70;;;;;;6088562;23;20160;-77
2023/05/13 08:20:30;;;;;;;10.23;6.70;;;19.80;61.30;;;;;;6062701;23;20172;-76
2023/05/13 08:22:57;;;;;;;6.67;6.00;;;20.00;59.80;;;;;;6114014;23;20148;-76
2023/05/13 08:25:23;;;;;;;7.37;6.77;;;20.30;58.90;;;;;;6067199;23;20176;-77
2023/05/13 08:27:48;;;;;;;12.00;8.90;;;20.60;58.20;;;;;;6112280;23;20353;-78
2023/05/13 08:30:14;;;;;;;10.20;8.43;;;20.80;56.90;;;;;;6112528;23;20388;-75
2023/05/13 08:32:41;;;;;;;7.10;6.50;;;20.90;55.90;;;;;;6066962;23;20157;-77
2023/05/13 08:35:07;;;;;;;9.13;7.30;;;21.00;55.40;;;;;;6091031;23;20385;-78
2023/05/13 08:37:33;;;;;;;9.30;7.63;;;20.80;55.30;;;;;;6064654;23;20384;-77
2023/05/13 08:40:00;;;;;;;8.83;7.20;;;20.60;55.00;;;;;;6110300;23;20504;-77
2023/05/13 08:42:31;;;;;;;8.33;6.90;;;20.40;55.70;;;;;;6065652;23;20511;-76
2023/05/13 08:44:57;;;;;;;9.40;6.83;;;20.30;55.60;;;;;;6116276;23;20408;-76
2023/05/13 08:47:41;;;;;;;6.33;5.67;;;20.20;55.50;;;;;;6091421;23;20397;-77
2023/05/13 08:50:07;;;;;;;8.53;6.30;;;20.30;55.90;;;;;;6090696;23;20400;-77
2023/05/13 08:52:33;;;;;;;8.50;7.60;;;20.30;54.50;;;;;;6114808;23;20360;-79
2023/05/13 08:54:59;;;;;;;6.90;6.20;;;20.30;54.40;;;;;;6064047;23;20418;-76
2023/05/13 08:57:26;;;;;;;12.43;8.03;;;20.20;54.40;;;;;;6062660;23;20388;-77
2023/05/13 08:59:52;;;;;;;11.43;6.97;;;20.10;53.10;;;;;;6064601;23;20413;-79
2023/05/13 09:02:19;;;;;;;5.70;5.20;;;20.00;53.60;;;;;;6088280;23;20382;-79
2023/05/13 09:04:47;;;;;;;6.70;5.27;;;20.00;54.00;;;;;;6038168;23;20979;-77
2023/05/13 09:07:13;;;;;;;6.87;6.27;;;20.00;53.30;;;;;;6084642;23;20386;-76
2023/05/13 09:09:39;;;;;;;5.63;5.13;;;20.00;52.90;;;;;;6059540;23;20432;-78
2023/05/13 09:12:05;;;;;;;5.80;5.30;;;20.10;52.90;;;;;;6085968;23;20138;-78
2023/05/13 09:14:34;;;;;;;9.63;5.80;;;20.20;52.40;;;;;;6086644;23;20483;-79
2023/05/13 09:17:03;;;;;;;7.37;5.40;;;20.20;51.70;;;;;;6062208;23;20172;-78
2023/05/13 09:19:28;;;;;;;9.67;5.83;;;20.40;51.10;;;;;;6061328;23;20438;-80
2023/05/13 09:21:55;;;;;;;13.33;6.83;;;20.40;51.30;;;;;;6063967;23;20378;-76
2023/05/13 09:24:22;;;;;;;5.80;5.17;;;20.50;50.80;;;;;;6086744;23;20272;-78
2023/05/13 09:26:50;;;;;;;7.10;6.40;;;20.60;51.10;;;;;;6087360;23;20392;-77
2023/05/13 09:29:22;;;;;;;7.27;6.47;;;20.70;49.80;;;;;;6094989;23;20403;-77
2023/05/13 09:31:52;;;;;;;8.10;6.33;;;20.70;50.10;;;;;;6093453;23;20377;-77
2023/05/13 09:34:36;;;;;;;9.90;5.77;;;20.70;49.50;;;;;;6092727;23;20376;-79
2023/05/13 09:37:06;;;;;;;5.70;5.17;;;20.70;49.80;;;;;;6069017;23;20857;-78
2023/05/13 09:39:38;;;;;;;6.70;5.80;;;20.80;49.70;;;;;;6115890;23;20414;-79
2023/05/13 09:42:04;;;;;;;6.80;5.40;;;21.10;49.60;;;;;;6119006;23;20376;-78
2023/05/13 09:44:29;;;;;;;7.03;5.23;;;21.20;49.50;;;;;;6095977;23;20416;-79
2023/05/13 09:46:55;;;;;;;6.03;5.53;;;21.40;49.30;;;;;;6093313;23;20388;-79
2023/05/13 09:49:22;;;;;;;6.63;5.60;;;21.60;48.60;;;;;;6070446;23;20169;-79
2023/05/13 09:51:49;;;;;;;7.33;5.63;;;21.60;48.30;;;;;;6116965;23;20137;-78
2023/05/13 09:54:15;;;;;;;5.50;5.00;;;21.50;48.50;;;;;;6115816;23;20396;-79
2023/05/13 09:56:41;;;;;;;6.80;6.20;;;21.50;48.60;;;;;;6068648;23;20376;-78
2023/05/13 09:59:07;;;;;;;6.07;5.07;;;21.50;48.90;;;;;;6070941;23;20399;-77
2023/05/13 10:01:35;;;;;;;8.10;6.67;;;21.30;49.50;;;;;;6116887;23;20168;-79
2023/05/13 10:04:04;;;;;;;7.20;4.80;;;21.10;50.30;;;;;;6115179;23;20188;-78
2023/05/13 10:06:30;;;;;;;11.53;5.90;;;21.00;51.30;;;;;;6092506;23;20369;-78
2023/05/13 10:09:02;;;;;;;11.57;6.10;;;21.10;52.00;;;;;;6090084;23;20440;-78
2023/05/13 10:11:31;;;;;;;7.63;6.83;;;21.20;52.20;;;;;;6092076;23;20373;-78
2023/05/13 10:14:03;;;;;;;15.23;7.87;;;21.10;52.70;;;;;;6092512;23;20448;-79
2023/05/13 10:16:31;;;;;;;8.60;6.57;;;21.00;53.10;;;;;;6118527;23;20431;-77
2023/05/13 10:18:59;;;;;;;12.03;8.20;;;20.80;53.50;;;;;;6114880;23;20384;-79
2023/05/13 10:21:26;;;;;;;7.80;7.00;;;20.80;53.80;;;;;;6092799;23;20387;-77
2023/05/13 10:23:52;;;;;;;15.47;8.43;;;20.50;54.50;;;;;;6092987;23;20345;-78
2023/05/13 10:26:20;;;;;;;8.17;7.03;;;20.40;55.60;;;;;;6069895;23;20376;-79
2023/05/13 10:28:47;;;;;;;7.07;5.93;;;20.50;55.90;;;;;;6094769;23;20376;-78
2023/05/13 10:31:13;;;;;;;7.40;6.60;;;20.60;56.00;;;;;;6118234;23;20392;-78
2023/05/13 10:33:40;;;;;;;9.90;7.83;;;20.80;55.40;;;;;;6092938;23;20368;-78
2023/05/13 10:36:27;;;;;;;6.83;6.13;;;21.00;53.80;;;;;;6092472;23;20153;-79
2023/05/13 10:39:16;;;;;;;7.30;6.40;;;21.00;54.20;;;;;;6118208;23;20397;-78
2023/05/13 10:42:03;;;;;;;5.70;5.20;;;21.00;53.80;;;;;;6066232;23;20384;-78
2023/05/13 10:44:30;;;;;;;13.23;7.23;;;21.10;53.70;;;;;;6095568;23;20422;-78
2023/05/13 10:46:56;;;;;;;6.90;6.20;;;21.20;52.50;;;;;;6092050;23;20417;-79
2023/05/13 10:49:24;;;;;;;8.97;7.37;;;21.20;52.30;;;;;;6090709;23;20407;-78
2023/05/13 10:51:50;;;;;;;5.77;5.27;;;21.20;52.40;;;;;;6067534;23;20582;-80
2023/05/13 10:54:20;;;;;;;6.90;6.20;;;21.30;52.70;;;;;;6092183;23;20388;-76
2023/05/13 10:56:56;;;;;;;8.13;7.13;;;21.40;52.70;;;;;;6116493;23;20376;-80
2023/05/13 10:59:29;;;;;;;6.67;6.00;;;21.40;52.80;;;;;;6091926;23;20404;-79
2023/05/13 11:01:55;;;;;;;6.73;6.00;;;21.50;52.70;;;;;;6092129;23;20457;-79
2023/05/13 11:04:21;;;;;;;5.77;4.60;;;21.60;52.50;;;;;;6091593;23;20428;-79
2023/05/13 11:06:50;;;;;;;9.47;8.20;;;21.80;52.50;;;;;;6091288;23;20456;-79
2023/05/13 11:09:19;;;;;;;8.67;7.80;;;22.00;53.00;;;;;;6093596;23;20401;-79
2023/05/13 11:11:52;;;;;;;10.53;8.60;;;22.00;53.10;;;;;;6069488;23;20365;-79
2023/05/13 11:14:23;;;;;;;10.83;7.43;;;22.20;52.90;;;;;;6095131;23;20436;-79
2023/05/13 11:16:58;;;;;;;8.50;7.70;;;22.50;52.20;;;;;;6094667;23;20396;-79
2023/05/13 11:19:32;;;;;;;7.67;6.87;;;22.50;51.50;;;;;;6094176;23;20408;-80
2023/05/13 11:22:09;;;;;;;6.90;6.20;;;22.30;51.70;;;;;;6115696;23;20432;-77
2023/05/13 11:24:35;;;;;;;7.40;5.93;;;22.40;51.70;;;;;;6092760;23;20434;-79
2023/05/13 11:27:16;;;;;;;6.07;5.23;;;22.30;51.60;;;;;;6092634;23;20384;-78
2023/05/13 11:29:55;;;;;;;9.50;5.40;;;22.10;51.50;;;;;;6069232;23;20428;-78
2023/05/13 11:32:58;;;;;;;12.77;4.33;;;21.90;49.70;;;;;;6061729;23;20378;-78
2023/05/13 11:35:30;;;;;;;3.67;2.97;;;21.50;46.60;;;;;;6062547;23;20438;-79
2023/05/13 11:37:59;;;;;;;3.20;2.87;;;20.70;48.40;;;;;;6064271;23;20395;-79
2023/05/13 11:40:32;;;;;;;8.23;3.00;;;20.00;49.60;;;;;;6044951;23;20405;-79
2023/05/13 11:42:59;;;;;;;5.57;2.70;;;19.30;52.80;;;;;;6087879;23;20477;-79
2023/05/13 11:45:26;;;;;;;4.67;2.43;;;18.60;53.30;;;;;;6065915;23;20413;-79
2023/05/13 11:47:53;;;;;;;6.90;3.23;;;18.00;56.10;;;;;;6064815;23;20393;-79
2023/05/13 11:50:31;;;;;;;5.33;3.50;;;17.40;58.40;;;;;;6062781;23;20395;-79
2023/05/13 11:52:58;;;;;;;4.67;3.30;;;17.00;61.50;;;;;;6064763;23;20379;-79
2023/05/13 11:55:25;;;;;;;3.63;2.63;;;16.80;63.90;;;;;;6090254;23;20385;-79
2023/05/13 11:57:51;;;;;;;3.60;2.50;;;16.80;65.20;;;;;;6061550;23;20454;-79
2023/05/13 12:00:22;;;;;;;6.43;2.97;;;16.90;67.40;;;;;;6062531;23;20412;-79
2023/05/13 12:02:49;;;;;;;3.37;3.07;;;17.10;67.60;;;;;;6074228;23;20531;-78
2023/05/13 12:05:15;;;;;;;2.80;2.60;;;17.20;66.80;;;;;;6117284;23;20388;-79
2023/05/13 12:07:41;;;;;;;3.40;2.67;;;17.40;67.60;;;;;;6093501;23;20884;-79
2023/05/13 12:10:08;;;;;;;3.90;3.53;;;17.60;68.00;;;;;;6116367;23;20454;-79
2023/05/13 12:12:39;;;;;;;3.50;3.20;;;17.80;67.50;;;;;;6068698;23;20374;-79
2023/05/13 12:15:11;;;;;;;4.53;3.50;;;18.00;67.30;;;;;;6119304;23;20378;-80
2023/05/13 12:17:38;;;;;;;5.00;3.80;;;18.20;66.40;;;;;;6095278;23;20430;-79
2023/05/13 12:20:24;;;;;;;4.30;3.77;;;18.50;66.40;;;;;;6095747;23;20438;-79
2023/05/13 12:22:52;;;;;;;3.77;3.43;;;18.80;61.20;;;;;;5977627;24;20410;-79
2023/05/13 12:25:50;;;;;;;7.23;3.90;;;19.10;60.30;;;;;;5981317;24;20446;-79
2023/05/13 12:28:25;;;;;;;3.10;2.80;;;19.50;58.00;;;;;;5982254;24;20418;-79
2023/05/13 12:31:02;;;;;;;2.93;2.63;;;19.90;57.00;;;;;;5980683;24;20440;-80
2023/05/13 12:33:33;;;;;;;3.83;2.30;;;20.30;55.50;;;;;;5985173;23;20431;-79
2023/05/13 12:36:24;;;;;;;3.30;2.67;;;20.40;53.50;;;;;;6008894;23;20380;-80
2023/05/13 12:39:04;;;;;;;3.10;2.80;;;20.60;52.70;;;;;;6004134;23;20512;-78